Time;durP1;ratioP1;P1;durP2;ratioP2;P2;SDS_P1;SDS_P2;PMS_P1;PMS_P2;Temp;Humidity;BMP_temperature;BMP_pressure;BME280_temperature;BME280_humidity;BME280_pressure;Samples;Min_cycle;Max_cycle;Signal;HPM_P1;HPM_P2
2023/11/11 00:00:39;;;;;;;1.88;0.50;;;;;;;11.14;67.52;100117.03;4994601;28;20030;-79
2023/11/11 00:03:11;;;;;;;6.97;0.70;;;;;;;11.04;69.70;100120.50;4994422;28;20402;-79
2023/11/11 00:05:40;;;;;;;7.22;0.75;;;;;;;11.16;69.71;100128.31;5011254;28;20038;-79
2023/11/11 00:08:06;;;;;;;4.00;0.85;;;;;;;11.09;71.05;100115.31;5011978;28;20042;-79
2023/11/11 00:10:34;;;;;;;4.25;0.80;;;;;;;10.94;72.38;100118.78;4993072;28;20038;-79
2023/11/11 00:13:03;;;;;;;6.25;1.00;;;;;;;11.45;71.80;100122.19;5011717;28;20046;-80
2023/11/11 00:15:28;;;;;;;4.70;0.90;;;;;;;11.77;70.77;100125.63;5010780;28;20037;-80
2023/11/11 00:17:54;;;;;;;5.43;1.15;;;;;;;11.68;71.13;100125.63;5011657;28;20041;-79
2023/11/11 00:20:21;;;;;;;5.22;0.88;;;;;;;12.04;69.99;100132.47;4990863;28;20045;-79
2023/11/11 00:22:49;;;;;;;12.38;1.10;;;;;;;11.69;71.28;100130.84;5012019;28;20430;-79
2023/11/11 00:25:18;;;;;;;5.40;0.95;;;;;;;11.81;70.62;100142.16;5011676;28;20402;-79
2023/11/11 00:27:47;;;;;;;5.60;0.70;;;;;;;11.81;69.74;100153.47;5011085;28;20044;-79
2023/11/11 00:30:13;;;;;;;5.00;0.60;;;;;;;12.12;68.20;100139.41;5012060;28;20044;-79
2023/11/11 00:32:40;;;;;;;3.63;0.75;;;;;;;12.18;67.44;100142.00;5011770;28;20026;-79
2023/11/11 00:35:07;;;;;;;2.47;0.70;;;;;;;11.86;67.12;100143.00;4994457;28;20038;-79
2023/11/11 00:37:33;;;;;;;5.07;1.10;;;;;;;11.71;67.97;100142.13;5011572;28;20057;-79
2023/11/11 00:39:58;;;;;;;7.22;0.80;;;;;;;11.85;67.92;100146.47;4994206;28;20061;-78
2023/11/11 00:42:24;;;;;;;5.07;0.95;;;;;;;11.58;68.87;100143.06;4993927;28;20042;-80
2023/11/11 00:44:52;;;;;;;6.85;0.98;;;;;;;11.22;67.37;100162.22;5009987;28;20045;-79
2023/11/11 00:47:18;;;;;;;9.55;1.20;;;;;;;11.50;67.41;100143.94;5013393;28;20109;-79
2023/11/11 00:49:44;;;;;;;3.65;0.80;;;;;;;11.64;65.71;100155.22;5011991;28;20062;-80
2023/11/11 00:52:12;;;;;;;4.28;0.70;;;;;;;11.56;65.65;100160.47;4994075;28;20504;-79
2023/11/11 00:54:40;;;;;;;1.58;0.70;;;;;;;11.36;65.89;100173.53;5015601;28;20061;-79
2023/11/11 00:57:06;;;;;;;2.30;0.70;;;;;;;11.62;65.94;100173.50;5015532;28;20149;-79
2023/11/11 00:59:34;;;;;;;3.78;0.60;;;;;;;11.64;65.66;100173.50;5017115;28;20511;-79
2023/11/11 01:01:59;;;;;;;1.65;0.60;;;;;;;11.91;64.68;100170.84;5016105;28;20092;-80
2023/11/11 01:04:26;;;;;;;2.28;0.73;;;;;;;11.90;64.40;100170.84;4998005;28;20456;-80
2023/11/11 01:06:51;;;;;;;1.98;0.60;;;;;;;11.94;64.60;100168.22;5015504;28;20037;-79
2023/11/11 01:09:20;;;;;;;3.13;0.70;;;;;;;11.96;64.81;100171.69;5016163;28;20124;-78
2023/11/11 01:11:46;;;;;;;4.90;0.60;;;;;;;11.86;65.49;100164.75;5014871;28;20030;-79
2023/11/11 01:14:15;;;;;;;6.18;1.00;;;;;;;11.82;65.58;100163.03;5014873;28;20034;-78
2023/11/11 01:16:43;;;;;;;2.03;0.80;;;;;;;11.73;65.58;100163.94;5014677;28;20038;-78
2023/11/11 01:19:08;;;;;;;2.10;0.73;;;;;;;11.63;65.85;100167.41;5015320;28;20049;-79
2023/11/11 01:21:37;;;;;;;4.07;0.77;;;;;;;11.58;65.88;100169.16;4997136;28;20514;-80
2023/11/11 01:24:08;;;;;;;3.72;0.82;;;;;;;11.55;66.41;100163.06;5015538;28;20041;-78
2023/11/11 01:26:33;;;;;;;5.65;0.90;;;;;;;11.51;66.49;100162.22;5014343;28;20100;-79
2023/11/11 01:28:59;;;;;;;3.30;0.95;;;;;;;11.48;66.85;100171.78;4997139;28;20037;-78
2023/11/11 01:31:24;;;;;;;2.13;0.82;;;;;;;11.49;67.03;100165.69;4997303;28;20061;-79
2023/11/11 01:33:50;;;;;;;2.78;0.80;;;;;;;11.50;67.50;100170.03;4997072;28;20045;-78
2023/11/11 01:36:21;;;;;;;2.70;0.80;;;;;;;11.48;67.93;100169.16;4997710;28;20233;-78
2023/11/11 01:38:46;;;;;;;4.30;1.00;;;;;;;11.48;67.68;100164.81;5014356;28;20079;-79
2023/11/11 01:41:13;;;;;;;4.47;0.90;;;;;;;11.46;67.55;100161.38;5015335;28;20023;-81
2023/11/11 01:43:38;;;;;;;2.95;1.23;;;;;;;11.37;68.27;100167.44;4997074;28;20054;-77
2023/11/11 01:46:06;;;;;;;2.70;0.80;;;;;;;11.48;68.41;100167.44;5015548;28;20072;-77
2023/11/11 01:48:34;;;;;;;4.30;1.00;;;;;;;11.35;69.18;100171.78;4996791;28;20114;-78
2023/11/11 01:50:59;;;;;;;4.93;0.90;;;;;;;11.43;69.30;100170.91;5015682;28;20073;-77
2023/11/11 01:53:28;;;;;;;6.68;1.23;;;;;;;11.47;69.47;100172.63;5017213;28;20603;-78
2023/11/11 01:55:54;;;;;;;6.07;1.20;;;;;;;11.28;70.77;100164.84;5029955;28;20038;-78
2023/11/11 01:58:22;;;;;;;5.35;1.10;;;;;;;11.01;71.89;100175.28;5027527;28;20045;-79
2023/11/11 02:00:50;;;;;;;3.80;1.20;;;;;;;11.31;70.54;100177.03;5014933;28;20045;-80
2023/11/11 02:03:20;;;;;;;5.45;1.13;;;;;;;11.47;70.55;100180.47;5015712;28;20092;-80
2023/11/11 02:05:46;;;;;;;5.47;1.10;;;;;;;11.49;70.05;100184.84;4997088;28;20041;-79
2023/11/11 02:08:12;;;;;;;6.00;1.20;;;;;;;11.34;70.00;100187.47;5015285;28;20118;-79
2023/11/11 02:10:38;;;;;;;5.10;1.10;;;;;;;11.40;68.89;100192.69;5014763;28;20096;-79
2023/11/11 02:13:05;;;;;;;5.35;1.52;;;;;;;11.08;70.62;100204.84;5015005;28;20415;-80
2023/11/11 02:15:31;;;;;;;4.63;1.30;;;;;;;11.13;69.61;100195.28;5014708;28;20587;-79
2023/11/11 02:18:02;;;;;;;4.72;1.10;;;;;;;11.24;68.65;100202.25;5014346;28;20037;-78
2023/11/11 02:20:29;;;;;;;11.70;1.50;;;;;;;11.19;68.72;100198.78;5014672;28;20045;-78
2023/11/11 02:22:54;;;;;;;7.93;1.80;;;;;;;11.22;68.76;100201.38;5014564;28;20049;-79
2023/11/11 02:25:23;;;;;;;6.55;1.38;;;;;;;11.22;68.43;100201.38;4996609;28;20539;-78
2023/11/11 02:27:55;;;;;;;6.05;1.30;;;;;;;11.02;69.56;100205.72;5012612;28;20575;-79
2023/11/11 02:30:23;;;;;;;5.80;1.30;;;;;;;11.35;68.22;100204.84;5013865;28;20030;-80
2023/11/11 02:32:49;;;;;;;9.43;1.50;;;;;;;11.08;68.62;100204.84;5013931;28;20395;-78
2023/11/11 02:35:14;;;;;;;5.13;1.30;;;;;;;11.15;69.21;100215.31;5014821;28;20037;-78
2023/11/11 02:37:40;;;;;;;4.78;1.20;;;;;;;11.18;69.51;100211.81;5015632;28;20038;-79
2023/11/11 02:40:08;;;;;;;5.90;1.40;;;;;;;11.54;68.35;100211.78;4996693;28;20129;-80
2023/11/11 02:42:34;;;;;;;5.38;1.05;;;;;;;11.57;68.21;100211.81;5013915;28;20089;-80
2023/11/11 02:44:59;;;;;;;5.00;1.20;;;;;;;11.73;67.81;100199.59;5014065;28;20066;-80
2023/11/11 02:47:24;;;;;;;8.63;1.20;;;;;;;11.54;68.51;100210.91;4997563;28;20545;-78
2023/11/11 02:49:50;;;;;;;5.53;1.17;;;;;;;11.29;68.30;100221.38;4997623;28;20117;-79
2023/11/11 02:52:16;;;;;;;3.78;1.23;;;;;;;11.24;69.67;100217.91;5014335;28;20092;-80
2023/11/11 02:54:42;;;;;;;6.28;1.20;;;;;;;11.20;69.89;100213.56;5013660;28;22676;-79
2023/11/11 02:57:07;;;;;;;5.43;1.40;;;;;;;11.34;68.40;100214.41;5013767;28;20037;-80
2023/11/11 02:59:35;;;;;;;3.88;1.40;;;;;;;11.27;68.10;100214.44;4995063;28;20034;-78
2023/11/11 03:02:01;;;;;;;5.95;1.58;;;;;;;11.17;67.98;100212.66;5014013;28;20090;-78
2023/11/11 03:04:26;;;;;;;2.78;1.45;;;;;;;11.06;67.74;100223.09;5014905;28;20038;-79
2023/11/11 03:06:54;;;;;;;6.18;1.40;;;;;;;11.23;67.61;100216.16;4996507;28;20038;-80
2023/11/11 03:09:20;;;;;;;4.63;1.50;;;;;;;11.24;67.16;100225.72;5013959;28;20193;-81
2023/11/11 03:11:50;;;;;;;6.47;1.60;;;;;;;10.89;68.57;100230.03;5012230;28;20566;-78
2023/11/11 03:14:25;;;;;;;4.45;1.58;;;;;;;10.65;69.11;100230.00;5012869;28;20038;-79
2023/11/11 03:16:51;;;;;;;4.18;1.75;;;;;;;10.89;69.76;100236.13;5012238;28;20487;-80
2023/11/11 03:19:16;;;;;;;6.65;2.70;;;;;;;11.01;69.11;100235.28;5013161;28;20042;-79
2023/11/11 03:21:44;;;;;;;3.20;1.35;;;;;;;10.61;67.38;100246.50;5012247;28;20503;-78
2023/11/11 03:24:10;;;;;;;6.38;1.00;;;;;;;10.71;65.68;100246.53;5012519;28;20049;-77
2023/11/11 03:26:35;;;;;;;1.50;0.70;;;;;;;10.80;65.79;100253.47;5011292;28;20042;-77
2023/11/11 03:29:00;;;;;;;4.15;1.00;;;;;;;10.71;65.57;100245.66;5012173;28;20038;-80
2023/11/11 03:31:29;;;;;;;2.70;0.88;;;;;;;11.05;65.17;100250.06;5009602;28;20442;-79
2023/11/11 03:33:54;;;;;;;2.45;1.17;;;;;;;11.25;64.93;100252.69;4995408;28;20092;-78
2023/11/11 03:36:23;;;;;;;3.22;1.40;;;;;;;10.96;67.52;100258.75;4995398;28;20074;-79
2023/11/11 03:38:48;;;;;;;3.83;1.20;;;;;;;11.35;66.13;100257.03;4992532;28;20111;-78
2023/11/11 03:41:13;;;;;;;2.90;1.13;;;;;;;11.35;66.15;100254.44;4994430;28;20096;-78
2023/11/11 03:43:39;;;;;;;3.65;1.30;;;;;;;11.38;66.14;100259.66;4993939;28;20495;-77
2023/11/11 03:46:05;;;;;;;2.08;1.30;;;;;;;11.46;65.80;100252.72;4994121;28;20042;-77
2023/11/11 03:48:30;;;;;;;4.63;1.40;;;;;;;11.47;65.79;100262.25;4993935;28;20035;-77
2023/11/11 03:50:56;;;;;;;5.57;1.60;;;;;;;11.36;66.19;100261.41;4995687;28;20046;-79
2023/11/11 03:53:22;;;;;;;2.70;1.70;;;;;;;11.38;66.70;100263.16;4979477;28;20416;-79
2023/11/11 03:55:53;;;;;;;4.25;1.60;;;;;;;11.36;67.20;100264.88;4995632;28;20045;-79
2023/11/11 03:58:18;;;;;;;3.28;1.60;;;;;;;11.39;66.94;100262.28;4975902;28;20488;-79
2023/11/11 04:00:50;;;;;;;4.05;1.77;;;;;;;11.30;67.49;100269.22;4992658;28;20043;-78
2023/11/11 04:03:16;;;;;;;5.88;1.90;;;;;;;11.07;68.71;100270.94;4975198;28;20148;-79
2023/11/11 04:05:42;;;;;;;7.78;2.03;;;;;;;11.17;68.19;100268.34;4991719;28;20039;-78
2023/11/11 04:08:13;;;;;;;9.15;2.10;;;;;;;11.17;68.53;100278.78;4992932;28;20130;-78
2023/11/11 04:10:39;;;;;;;9.80;2.33;;;;;;;11.08;67.87;100275.28;4992642;28;20114;-79
2023/11/11 04:13:05;;;;;;;6.28;2.70;;;;;;;10.87;68.28;100286.53;4992828;28;20071;-79
2023/11/11 04:15:31;;;;;;;6.63;2.08;;;;;;;11.11;67.76;100277.88;4992015;28;20538;-78
2023/11/11 04:17:57;;;;;;;6.30;2.13;;;;;;;10.87;67.11;100281.31;4974596;28;20049;-78
2023/11/11 04:20:22;;;;;;;5.22;1.92;;;;;;;11.26;66.24;100283.16;4991415;28;20038;-79
2023/11/11 04:22:47;;;;;;;6.70;2.10;;;;;;;11.25;65.79;100277.06;4974104;28;20065;-79
2023/11/11 04:25:19;;;;;;;6.00;2.05;;;;;;;11.03;66.06;100285.72;4974503;28;20056;-78
2023/11/11 04:27:45;;;;;;;5.45;1.90;;;;;;;11.21;66.16;100287.50;4974276;28;20408;-78
2023/11/11 04:30:11;;;;;;;3.92;2.03;;;;;;;11.12;66.32;100290.06;4974429;28;20058;-77
2023/11/11 04:32:36;;;;;;;9.40;2.42;;;;;;;11.29;65.79;100280.53;4973815;28;20460;-77
2023/11/11 04:35:02;;;;;;;8.30;1.98;;;;;;;11.22;65.70;100286.63;4991114;28;20084;-78
2023/11/11 04:37:28;;;;;;;7.70;2.40;;;;;;;10.68;67.46;100290.81;4974219;28;20058;-79
2023/11/11 04:39:58;;;;;;;6.97;2.40;;;;;;;11.26;65.68;100286.63;4992635;28;20046;-77
2023/11/11 04:42:24;;;;;;;7.57;2.35;;;;;;;11.26;66.12;100290.97;4991212;28;20133;-77
2023/11/11 04:44:51;;;;;;;4.68;1.85;;;;;;;11.21;66.60;100293.59;4992477;28;20038;-77
2023/11/11 04:47:20;;;;;;;7.63;2.72;;;;;;;11.19;66.30;100303.13;4974273;28;20066;-76
2023/11/11 04:49:46;;;;;;;8.57;2.67;;;;;;;11.10;66.25;100302.25;4991827;28;20035;-80
2023/11/11 04:52:12;;;;;;;6.10;2.33;;;;;;;11.34;66.46;100308.34;4992003;28;20038;-77
2023/11/11 04:54:48;;;;;;;7.28;2.30;;;;;;;11.15;65.49;100330.09;4992015;28;20049;-79
2023/11/11 04:57:13;;;;;;;7.30;1.88;;;;;;;11.54;63.92;100331.00;4991510;28;20039;-78
2023/11/11 04:59:39;;;;;;;9.77;1.52;;;;;;;11.51;62.30;100337.13;4991410;28;20495;-79
2023/11/11 05:02:04;;;;;;;3.40;0.75;;;;;;;11.05;61.37;100340.47;4992162;28;20038;-79
2023/11/11 05:04:30;;;;;;;4.45;0.82;;;;;;;11.23;60.43;100332.69;4991453;28;20121;-78
2023/11/11 05:06:55;;;;;;;1.52;0.52;;;;;;;11.58;60.12;100328.41;4974170;28;20450;-79
2023/11/11 05:09:22;;;;;;;2.20;0.60;;;;;;;11.90;59.15;100325.81;4972195;28;20038;-79
2023/11/11 05:11:48;;;;;;;4.15;0.93;;;;;;;11.22;60.34;100334.44;4990813;28;20105;-78
2023/11/11 05:14:17;;;;;;;2.38;0.50;;;;;;;11.67;59.73;100333.63;4982124;28;20057;-79
2023/11/11 05:16:57;;;;;;;3.33;0.50;;;;;;;11.72;59.63;100326.66;4973535;28;20069;-78
2023/11/11 05:19:23;;;;;;;0.88;0.50;;;;;;;11.83;59.80;100328.47;4974408;28;20479;-78
2023/11/11 05:21:48;;;;;;;1.27;0.57;;;;;;;11.86;59.92;100331.94;4992186;28;20041;-78
2023/11/11 05:24:14;;;;;;;2.00;0.50;;;;;;;11.72;61.25;100339.72;4991909;28;20042;-78
2023/11/11 05:26:41;;;;;;;2.30;0.55;;;;;;;11.74;61.73;100337.16;4974025;28;20045;-78
2023/11/11 05:29:08;;;;;;;1.70;0.52;;;;;;;11.73;61.36;100340.59;4992460;28;20057;-78
2023/11/11 05:31:34;;;;;;;4.30;0.60;;;;;;;11.69;62.10;100342.34;4974747;28;20042;-79
2023/11/11 05:34:00;;;;;;;1.92;0.60;;;;;;;11.64;62.49;100349.31;4975546;28;20057;-79
2023/11/11 05:36:26;;;;;;;0.73;0.50;;;;;;;11.65;62.92;100350.16;4990997;28;20108;-79
2023/11/11 05:38:53;;;;;;;2.58;0.68;;;;;;;11.66;62.86;100344.94;4974741;28;20447;-79
2023/11/11 05:41:23;;;;;;;1.60;0.60;;;;;;;11.57;63.53;100351.91;4995866;28;20038;-78
2023/11/11 05:43:48;;;;;;;2.75;0.63;;;;;;;11.57;63.82;100357.13;4977887;28;20042;-79
2023/11/11 05:46:17;;;;;;;1.13;0.57;;;;;;;11.64;63.61;100358.88;4995236;28;20581;-79
2023/11/11 05:48:46;;;;;;;2.10;0.60;;;;;;;11.60;64.27;100360.59;4995112;28;20042;-78
2023/11/11 05:51:12;;;;;;;2.97;0.63;;;;;;;11.54;64.57;100351.88;4995478;28;20062;-77
2023/11/11 05:53:38;;;;;;;4.57;0.75;;;;;;;11.60;64.56;100351.91;4995193;28;20514;-78
2023/11/11 05:56:04;;;;;;;5.97;1.00;;;;;;;11.54;64.64;100355.38;4995517;28;20039;-79
2023/11/11 05:58:29;;;;;;;3.17;1.00;;;;;;;11.53;65.16;100364.06;4994981;28;20045;-77
2023/11/11 06:00:54;;;;;;;3.95;1.10;;;;;;;11.55;64.92;100356.25;4995627;28;20480;-77
2023/11/11 06:03:26;;;;;;;4.95;1.45;;;;;;;11.55;65.72;100359.72;4996163;28;20044;-78
2023/11/11 06:05:51;;;;;;;8.05;3.00;;;;;;;11.42;66.38;100359.69;4995943;28;20400;-79
2023/11/11 06:08:16;;;;;;;8.95;2.67;;;;;;;11.49;67.10;100361.47;4995472;28;20034;-78
2023/11/11 06:10:43;;;;;;;10.68;2.55;;;;;;;11.68;66.23;100366.72;4994357;28;20042;-78
2023/11/11 06:13:09;;;;;;;9.25;2.75;;;;;;;11.36;66.98;100366.66;4995063;28;20069;-77
2023/11/11 06:15:35;;;;;;;6.85;2.58;;;;;;;11.71;66.26;100365.84;4977920;28;20041;-77
2023/11/11 06:18:02;;;;;;;10.80;2.88;;;;;;;11.73;65.43;100369.31;4995429;28;20030;-78
2023/11/11 06:20:30;;;;;;;7.30;2.80;;;;;;;11.90;65.36;100377.19;4995559;28;20060;-79
2023/11/11 06:22:59;;;;;;;7.35;2.78;;;;;;;11.85;65.22;100369.34;4996018;28;20035;-79
2023/11/11 06:25:24;;;;;;;7.72;2.72;;;;;;;11.72;65.14;100362.34;4986088;28;20388;-79
2023/11/11 06:27:53;;;;;;;6.68;2.50;;;;;;;11.77;65.48;100363.28;4998548;28;20125;-78
2023/11/11 06:30:23;;;;;;;9.77;2.63;;;;;;;11.34;65.38;100375.38;5015188;28;20042;-78
2023/11/11 06:32:52;;;;;;;11.60;2.50;;;;;;;11.82;64.21;100374.59;5014326;28;20128;-78
2023/11/11 06:35:23;;;;;;;8.23;2.33;;;;;;;11.79;64.32;100382.41;5014287;28;20041;-79
2023/11/11 06:37:49;;;;;;;10.00;2.80;;;;;;;11.53;65.23;100389.28;5013983;28;20041;-77
2023/11/11 06:40:14;;;;;;;6.63;2.58;;;;;;;11.70;65.55;100396.31;5014524;28;20071;-78
2023/11/11 06:42:40;;;;;;;5.88;2.55;;;;;;;12.05;63.83;100385.03;5014124;28;20398;-78
2023/11/11 06:45:06;;;;;;;9.43;2.55;;;;;;;12.00;63.74;100392.88;5014343;28;20034;-78
2023/11/11 06:47:32;;;;;;;7.00;2.45;;;;;;;11.89;64.12;100389.41;5012960;28;20042;-79
2023/11/11 06:49:58;;;;;;;8.00;2.70;;;;;;;11.68;64.96;100392.81;4994948;28;20038;-78
2023/11/11 06:52:23;;;;;;;6.80;2.45;;;;;;;11.71;65.04;100397.19;5012850;28;20100;-78
2023/11/11 06:54:52;;;;;;;11.30;2.70;;;;;;;11.83;63.98;100398.97;5013702;28;20045;-78
2023/11/11 06:57:19;;;;;;;9.00;2.35;;;;;;;11.82;63.76;100398.09;5013350;28;20041;-78
2023/11/11 06:59:45;;;;;;;7.97;2.13;;;;;;;11.65;64.27;100398.03;5012749;28;20109;-78
2023/11/11 07:02:12;;;;;;;13.40;2.28;;;;;;;11.89;62.77;100399.84;5019176;28;20096;-77
2023/11/11 07:04:44;;;;;;;6.88;2.20;;;;;;;11.93;62.25;100401.59;5008147;28;20038;-80
2023/11/11 07:07:12;;;;;;;7.15;2.42;;;;;;;12.09;61.72;100405.06;4999092;28;20042;-78
2023/11/11 07:09:41;;;;;;;5.90;2.20;;;;;;;11.92;62.03;100415.50;5014745;28;20092;-79
2023/11/11 07:12:07;;;;;;;4.50;2.00;;;;;;;11.87;62.35;100411.16;5014794;28;20041;-79
2023/11/11 07:14:33;;;;;;;4.38;2.05;;;;;;;12.08;61.54;100417.25;4997817;28;20621;-79
2023/11/11 07:16:59;;;;;;;6.47;2.20;;;;;;;12.24;60.82;100414.63;5000034;28;20104;-76
2023/11/11 07:19:24;;;;;;;5.30;2.10;;;;;;;12.14;60.97;100430.31;5021322;28;20034;-77
2023/11/11 07:21:50;;;;;;;7.65;2.30;;;;;;;11.72;62.01;100431.13;5024226;28;20046;-78
2023/11/11 07:24:15;;;;;;;7.10;2.05;;;;;;;11.94;61.50;100431.19;5022818;28;20038;-77
2023/11/11 07:26:41;;;;;;;5.63;2.00;;;;;;;11.61;62.57;100438.06;5003474;28;20037;-78
2023/11/11 07:29:06;;;;;;;7.85;2.10;;;;;;;11.77;62.35;100439.03;5000668;28;20041;-77
2023/11/11 07:31:32;;;;;;;6.13;2.13;;;;;;;11.91;62.07;100442.50;5015644;28;20030;-79
2023/11/11 07:34:00;;;;;;;6.75;2.13;;;;;;;11.81;61.92;100452.94;5015436;28;20030;-76
2023/11/11 07:36:26;;;;;;;6.68;2.42;;;;;;;11.96;61.39;100450.31;5016671;28;20121;-79
2023/11/11 07:38:54;;;;;;;5.65;2.15;;;;;;;11.77;62.86;100449.47;5015302;28;20045;-79
2023/11/11 07:41:19;;;;;;;6.75;2.75;;;;;;;11.60;61.89;100451.97;5015077;28;20033;-78
2023/11/11 07:43:53;;;;;;;6.53;2.50;;;;;;;12.03;60.65;100452.09;5013759;28;20479;-79
2023/11/11 07:46:19;;;;;;;10.25;3.40;;;;;;;12.26;59.91;100452.94;5014809;28;20045;-79
2023/11/11 07:48:47;;;;;;;9.43;3.00;;;;;;;12.46;59.79;100450.34;4997020;28;20064;-79
2023/11/11 07:51:13;;;;;;;7.35;2.20;;;;;;;12.50;59.83;100452.94;5016188;28;20068;-79
2023/11/11 07:53:41;;;;;;;4.32;1.90;;;;;;;12.61;60.59;100463.41;5014360;28;20034;-80
2023/11/11 07:56:06;;;;;;;6.25;2.30;;;;;;;12.63;60.79;100464.25;4997627;28;20132;-79
2023/11/11 07:58:32;;;;;;;5.75;1.90;;;;;;;12.71;61.46;100453.78;4995863;28;20171;-79
2023/11/11 08:00:58;;;;;;;5.95;1.90;;;;;;;13.01;60.43;100457.19;5017141;28;20030;-79
2023/11/11 08:03:27;;;;;;;9.57;2.10;;;;;;;12.98;60.64;100461.56;5015148;28;20038;-79
2023/11/11 08:05:52;;;;;;;9.65;2.08;;;;;;;13.05;60.96;100458.06;5020676;28;20033;-79
2023/11/11 08:08:18;;;;;;;3.35;1.65;;;;;;;13.31;59.97;100456.25;5020747;28;20045;-78
2023/11/11 08:10:55;;;;;;;6.72;2.10;;;;;;;12.99;60.61;100468.56;5014925;28;20034;-79
2023/11/11 08:13:21;;;;;;;4.78;1.77;;;;;;;13.36;60.25;100469.31;4997532;28;20444;-79
2023/11/11 08:15:52;;;;;;;7.88;1.83;;;;;;;13.46;58.37;100467.53;5019696;28;20076;-80
2023/11/11 08:18:21;;;;;;;6.03;1.90;;;;;;;13.57;59.10;100470.97;5014409;28;20124;-79
2023/11/11 08:20:46;;;;;;;6.43;1.70;;;;;;;13.54;59.76;100476.22;5014632;28;20030;-79
2023/11/11 08:23:12;;;;;;;8.27;1.90;;;;;;;13.35;60.12;100481.56;5016170;28;20398;-78
2023/11/11 08:25:38;;;;;;;6.60;1.83;;;;;;;13.01;60.11;100488.59;5012980;28;20116;-78
2023/11/11 08:28:03;;;;;;;6.13;2.15;;;;;;;12.82;59.67;100499.97;4996075;28;20395;-78
2023/11/11 08:30:29;;;;;;;6.95;2.00;;;;;;;12.87;59.80;100503.44;5012790;28;20038;-79
2023/11/11 08:32:54;;;;;;;7.00;1.85;;;;;;;12.85;61.14;100505.22;4994631;28;20053;-78
2023/11/11 08:35:26;;;;;;;5.95;1.70;;;;;;;12.83;61.51;100514.81;5012075;28;20087;-79
2023/11/11 08:37:54;;;;;;;5.38;1.40;;;;;;;12.30;62.93;100520.06;5012882;28;20121;-79
2023/11/11 08:40:22;;;;;;;5.43;1.38;;;;;;;12.07;64.11;100521.78;5015189;28;20034;-79
2023/11/11 08:42:48;;;;;;;4.65;1.40;;;;;;;12.04;65.14;100517.41;5017482;28;20068;-79
2023/11/11 08:45:13;;;;;;;4.43;1.45;;;;;;;12.23;63.86;100513.09;5017116;28;20109;-80
2023/11/11 08:47:45;;;;;;;3.97;1.80;;;;;;;11.99;65.64;100506.09;5016316;28;20030;-80
2023/11/11 08:50:11;;;;;;;3.67;1.33;;;;;;;11.94;66.33;100510.44;5014028;28;20069;-80
2023/11/11 08:52:41;;;;;;;4.35;1.63;;;;;;;11.63;68.48;100503.34;5014409;28;20095;-79
2023/11/11 08:55:07;;;;;;;6.60;1.98;;;;;;;11.56;69.64;100501.59;4996292;28;20034;-79
2023/11/11 08:57:33;;;;;;;4.38;2.10;;;;;;;11.89;68.75;100512.16;4995912;28;20037;-79
2023/11/11 08:59:58;;;;;;;6.93;2.10;;;;;;;11.71;70.10;100512.94;5015532;28;20107;-78
2023/11/11 09:02:24;;;;;;;8.80;3.00;;;;;;;11.99;69.12;100523.50;5009141;28;20048;-80
2023/11/11 09:04:52;;;;;;;9.43;2.30;;;;;;;11.79;70.00;100526.94;5011844;28;20430;-79
2023/11/11 09:07:18;;;;;;;8.88;2.17;;;;;;;11.96;70.05;100526.97;5012348;28;20046;-76
2023/11/11 09:09:50;;;;;;;8.52;2.33;;;;;;;11.56;70.71;100538.13;5012422;28;20033;-78
2023/11/11 09:12:25;;;;;;;4.35;1.80;;;;;;;11.11;71.71;100543.97;5012747;28;20034;-77
2023/11/11 09:14:50;;;;;;;5.68;1.60;;;;;;;11.57;70.51;100526.81;5015171;28;20109;-78
2023/11/11 09:17:15;;;;;;;3.72;1.25;;;;;;;11.68;68.14;100523.38;5000268;28;20053;-80
2023/11/11 09:19:56;;;;;;;4.15;1.20;;;;;;;11.52;67.80;100524.22;5017479;28;20038;-79
2023/11/11 09:22:21;;;;;;;1.50;0.93;;;;;;;11.22;68.39;100524.91;5019878;28;20096;-80
2023/11/11 09:24:53;;;;;;;4.32;1.10;;;;;;;11.53;67.71;100525.94;5004859;28;20033;-80
2023/11/11 09:27:18;;;;;;;4.53;0.98;;;;;;;11.71;67.07;100519.91;5003814;28;20047;-80
2023/11/11 09:29:44;;;;;;;4.35;0.98;;;;;;;11.76;67.02;100521.72;5018862;28;20033;-78
2023/11/11 09:32:11;;;;;;;2.75;1.02;;;;;;;11.84;67.28;100526.06;5000950;28;20423;-80
2023/11/11 09:34:42;;;;;;;1.40;0.80;;;;;;;11.87;68.02;100526.09;4999205;28;20030;-80
2023/11/11 09:37:10;;;;;;;1.60;1.00;;;;;;;11.94;67.65;100528.72;5005455;28;20064;-80
2023/11/11 09:39:36;;;;;;;1.52;1.10;;;;;;;11.89;68.42;100533.06;5001335;28;20060;-80
2023/11/11 09:42:01;;;;;;;1.85;1.10;;;;;;;11.94;68.44;100535.69;5020176;28;20503;-78
2023/11/11 09:44:28;;;;;;;2.70;1.20;;;;;;;12.03;68.84;100536.56;5018950;28;20089;-78
2023/11/11 09:46:57;;;;;;;2.90;1.40;;;;;;;12.24;69.21;100540.09;5024932;28;20037;-80
2023/11/11 09:49:24;;;;;;;3.22;1.30;;;;;;;12.32;69.34;100540.97;5027162;28;20034;-81
2023/11/11 09:51:54;;;;;;;2.60;1.40;;;;;;;12.35;69.70;100536.63;5009866;28;20093;-79
2023/11/11 09:54:23;;;;;;;2.95;1.45;;;;;;;12.55;69.74;100542.72;5009299;28;20141;-81
2023/11/11 09:56:50;;;;;;;3.00;1.40;;;;;;;12.57;69.80;100535.75;5022978;28;20455;-79
2023/11/11 09:59:16;;;;;;;5.30;1.60;;;;;;;12.85;69.92;100541.84;5023879;28;20514;-80
2023/11/11 10:01:46;;;;;;;4.95;1.52;;;;;;;13.11;70.13;100533.94;5022321;28;20030;-79
2023/11/11 10:04:12;;;;;;;3.38;1.40;;;;;;;13.22;69.84;100537.44;5026919;28;20034;-80
2023/11/11 10:06:41;;;;;;;3.40;1.55;;;;;;;13.54;69.18;100534.69;5026883;28;20024;-80
2023/11/11 10:09:11;;;;;;;3.55;1.80;;;;;;;13.76;68.24;100538.09;5006612;28;20117;-79
2023/11/11 10:11:37;;;;;;;3.33;1.70;;;;;;;13.92;66.87;100542.38;5020067;28;20030;-80
2023/11/11 10:14:03;;;;;;;2.97;1.70;;;;;;;13.90;65.52;100545.91;5025255;28;20042;-80
2023/11/11 10:16:29;;;;;;;5.18;1.92;;;;;;;13.84;65.10;100541.56;5008974;28;20030;-79
2023/11/11 10:18:58;;;;;;;3.55;1.80;;;;;;;13.37;65.02;100553.09;5027558;28;20034;-78
2023/11/11 10:21:24;;;;;;;3.38;1.63;;;;;;;13.38;64.94;100546.09;5027387;28;20026;-79
2023/11/11 10:23:55;;;;;;;4.05;1.80;;;;;;;13.50;64.40;100545.19;5024588;28;20042;-82
2023/11/11 10:26:21;;;;;;;4.55;2.03;;;;;;;13.06;66.38;100553.13;5001976;28;20080;-79
2023/11/11 10:28:50;;;;;;;4.18;1.95;;;;;;;12.80;67.00;100564.53;5019000;28;20526;-79
2023/11/11 10:31:18;;;;;;;4.57;1.40;;;;;;;12.12;66.32;100559.25;5000526;28;20525;-78
2023/11/11 10:33:46;;;;;;;9.55;3.45;;;;;;;12.67;64.88;100568.00;5017746;28;20049;-79
2023/11/11 10:36:11;;;;;;;4.57;1.42;;;;;;;12.58;64.92;100568.88;5018580;28;20041;-78
2023/11/11 10:38:42;;;;;;;7.05;1.30;;;;;;;12.75;64.49;100574.09;5021528;28;20038;-80
2023/11/11 10:41:08;;;;;;;10.27;1.40;;;;;;;12.26;64.78;100580.19;5024665;28;20030;-77
2023/11/11 10:43:34;;;;;;;2.40;1.10;;;;;;;12.10;65.67;100581.88;5025139;28;20044;-79
2023/11/11 10:46:00;;;;;;;4.05;1.17;;;;;;;11.98;65.97;100577.47;5009049;28;20411;-78
2023/11/11 10:48:25;;;;;;;2.50;1.00;;;;;;;11.95;65.04;100577.50;5022021;28;20056;-78
2023/11/11 10:50:52;;;;;;;3.33;1.00;;;;;;;11.68;65.79;100579.97;5023421;28;20034;-79
2023/11/11 10:53:18;;;;;;;2.47;0.90;;;;;;;12.04;64.14;100574.00;5025450;28;20045;-78
2023/11/11 10:55:49;;;;;;;1.75;1.00;;;;;;;11.85;64.74;100580.91;5023879;28;20065;-79
2023/11/11 10:58:18;;;;;;;2.83;1.20;;;;;;;12.04;64.07;100574.00;5023107;28;20033;-80
2023/11/11 11:00:46;;;;;;;2.25;0.90;;;;;;;12.47;63.39;100573.22;5021890;28;20014;-79
2023/11/11 11:03:12;;;;;;;4.07;1.00;;;;;;;12.55;62.59;100574.13;5018607;28;20038;-80
2023/11/11 11:06:21;;;;;;;4.18;1.10;;;;;;;12.46;64.89;100573.22;5016115;28;20125;-80
2023/11/11 11:09:00;;;;;;;2.58;1.15;;;;;;;12.88;65.01;100570.59;5017758;28;20119;-81
2023/11/11 11:11:35;;;;;;;2.20;1.23;;;;;;;13.23;64.06;100567.97;5023406;28;20033;-79
2023/11/11 11:14:41;;;;;;;6.82;1.40;;;;;;;13.47;64.63;100567.03;5021781;28;20470;-79
2023/11/11 11:17:08;;;;;;;5.38;1.50;;;;;;;13.26;63.66;100575.81;5018242;28;20046;-79
2023/11/11 11:20:00;;;;;;;5.72;1.48;;;;;;;13.51;63.84;100573.13;4997266;28;20402;-78
2023/11/11 11:22:33;;;;;;;5.13;1.30;;;;;;;13.69;65.04;100568.69;5014620;28;20100;-79
2023/11/11 11:24:59;;;;;;;4.38;1.38;;;;;;;13.92;64.80;100572.94;5004733;28;20073;-79